createdAt,value
2022-08-07T00:01:12.593Z,58.40
2022-08-07T00:03:51.796Z,58.50
2022-08-07T00:06:20.451Z,58.50
2022-08-07T00:08:56.149Z,58.50
2022-08-07T00:11:33.142Z,58.50
2022-08-07T00:14:00.231Z,58.60
2022-08-07T00:16:28.639Z,58.70
2022-08-07T00:18:55.477Z,58.70
2022-08-07T00:21:56.729Z,58.80
2022-08-07T00:24:10.307Z,58.80
2022-08-07T00:26:49.024Z,58.80
2022-08-07T00:29:31.300Z,58.80
2022-08-07T00:31:59.740Z,58.80
2022-08-07T00:34:27.235Z,58.90
2022-08-07T00:36:56.510Z,59.00
2022-08-07T00:39:23.378Z,59.00
2022-08-07T00:42:05.346Z,59.00
2022-08-07T00:44:33.772Z,59.10
2022-08-07T00:47:01.989Z,59.20
2022-08-07T00:50:21.252Z,59.20
2022-08-07T00:52:17.656Z,59.20
2022-08-07T00:54:47.107Z,59.70
2022-08-07T00:57:23.023Z,59.20
2022-08-07T00:59:52.542Z,59.20
2022-08-07T01:02:28.067Z,59.30
2022-08-07T01:04:58.545Z,59.40
2022-08-07T01:07:27.566Z,59.30
2022-08-07T01:10:06.039Z,59.40
2022-08-07T01:12:38.675Z,59.50
2022-08-07T01:15:06.073Z,59.50
2022-08-07T01:17:34.330Z,59.50
2022-08-07T01:20:17.028Z,59.50
2022-08-07T01:22:58.450Z,59.60
2022-08-07T01:25:53.913Z,59.70
2022-08-07T01:28:19.964Z,59.70
2022-08-07T01:30:47.188Z,59.80
2022-08-07T01:33:18.111Z,59.90
2022-08-07T01:35:53.310Z,60.00
2022-08-07T01:38:25.229Z,60.00
2022-08-07T01:40:59.043Z,60.10
2022-08-07T01:43:26.826Z,60.10
2022-08-07T01:46:03.404Z,60.30
2022-08-07T01:48:32.535Z,60.30
2022-08-07T01:51:24.213Z,60.40
2022-08-07T01:54:09.328Z,60.50
2022-08-07T01:56:52.028Z,60.60
2022-08-07T01:59:30.838Z,60.60
2022-08-07T02:02:10.483Z,60.60
2022-08-07T02:04:56.561Z,60.60
2022-08-07T02:07:29.152Z,60.80
2022-08-07T02:10:14.333Z,60.80
2022-08-07T02:12:46.423Z,60.80
2022-08-07T02:15:22.938Z,60.90
2022-08-07T02:17:52.765Z,61.00
2022-08-07T02:20:23.668Z,61.10
2022-08-07T02:22:57.447Z,61.20
2022-08-07T02:26:10.859Z,61.30
2022-08-07T02:28:24.792Z,61.30
2022-08-07T02:30:56.392Z,61.30
2022-08-07T02:33:41.915Z,61.40
2022-08-07T02:36:29.721Z,61.50
2022-08-07T02:39:02.326Z,61.50
2022-08-07T02:41:50.493Z,61.50
2022-08-07T02:44:23.717Z,62.30
2022-08-07T02:46:56.376Z,61.60
2022-08-07T02:49:28.753Z,61.70
2022-08-07T02:51:58.826Z,61.70
2022-08-07T02:54:29.424Z,61.80
2022-08-07T02:56:58.720Z,61.80
2022-08-07T02:59:29.219Z,61.90
2022-08-07T03:01:57.699Z,62.00
2022-08-07T03:04:30.496Z,62.00
2022-08-07T03:07:03.414Z,62.00
2022-08-07T03:09:43.151Z,62.10
2022-08-07T03:12:21.712Z,62.10
2022-08-07T03:14:52.405Z,62.10
2022-08-07T03:17:22.045Z,62.20
2022-08-07T03:19:55.208Z,62.20
2022-08-07T03:22:24.274Z,62.20
2022-08-07T03:24:59.752Z,62.30
2022-08-07T03:27:30.836Z,62.30
2022-08-07T03:30:10.789Z,62.40
2022-08-07T03:32:57.069Z,62.40
2022-08-07T03:35:27.530Z,62.40
2022-08-07T03:38:13.296Z,62.50
2022-08-07T03:40:44.360Z,62.50
2022-08-07T03:43:14.537Z,62.50
2022-08-07T03:45:43.622Z,62.50
2022-08-07T03:48:14.881Z,62.50
2022-08-07T03:50:43.079Z,62.60
2022-08-07T03:53:18.816Z,62.60
2022-08-07T03:56:04.008Z,62.70
2022-08-07T03:59:04.835Z,62.70
2022-08-07T04:01:20.516Z,62.70
2022-08-07T04:03:55.071Z,62.70
2022-08-07T04:06:37.698Z,62.80
2022-08-07T04:09:08.365Z,62.80
2022-08-07T04:12:23.604Z,62.80
2022-08-07T04:14:37.705Z,62.80
2022-08-07T04:17:20.269Z,62.80
2022-08-07T04:19:52.515Z,63.70
2022-08-07T04:22:27.653Z,62.80
2022-08-07T04:24:58.170Z,62.90
2022-08-07T04:27:26.597Z,63.00
2022-08-07T04:30:01.350Z,63.00
2022-08-07T04:32:34.350Z,63.10
2022-08-07T04:35:03.933Z,63.20
2022-08-07T04:37:40.337Z,63.30
2022-08-07T04:40:21.138Z,63.30
2022-08-07T04:42:52.436Z,63.40
2022-08-07T04:45:44.525Z,63.30
2022-08-07T04:48:28.450Z,63.30
2022-08-07T04:51:16.069Z,63.40
2022-08-07T04:54:01.410Z,63.40
2022-08-07T04:58:12.436Z,63.30
2022-08-07T05:00:10.823Z,63.30
2022-08-07T05:02:54.982Z,63.50
2022-08-07T05:05:52.142Z,63.40
2022-08-07T05:08:59.110Z,63.50
2022-08-07T05:11:58.884Z,63.60
2022-08-07T05:14:51.991Z,63.50
2022-08-07T05:17:50.218Z,63.60
2022-08-07T05:20:09.938Z,63.50
2022-08-07T05:22:40.340Z,63.50
2022-08-07T05:25:11.788Z,63.50
2022-08-07T05:28:03.123Z,63.60
2022-08-07T05:30:44.552Z,63.50
2022-08-07T05:33:15.744Z,63.30
2022-08-07T05:35:45.981Z,63.30
2022-08-07T05:38:59.660Z,63.30
2022-08-07T05:41:12.359Z,63.60
2022-08-07T05:44:07.758Z,63.60
2022-08-07T05:46:33.593Z,63.50
2022-08-07T05:49:01.320Z,63.40
2022-08-07T05:51:39.967Z,63.40
2022-08-07T05:54:11.924Z,63.30
2022-08-07T05:56:56.080Z,63.30
2022-08-07T05:59:24.738Z,63.10
2022-08-07T06:01:52.393Z,63.00
2022-08-07T06:04:21.437Z,62.80
2022-08-07T06:07:03.904Z,62.70
2022-08-07T06:10:03.875Z,62.70
2022-08-07T06:12:21.112Z,62.80
2022-08-07T06:15:05.703Z,62.70
2022-08-07T06:17:38.169Z,62.60
2022-08-07T06:20:12.648Z,62.40
2022-08-07T06:23:02.291Z,62.40
2022-08-07T06:25:41.224Z,62.50
2022-08-07T06:28:27.202Z,62.40
2022-08-07T06:30:55.547Z,62.20
2022-08-07T06:33:23.711Z,62.00
2022-08-07T06:36:12.043Z,61.80
2022-08-07T06:38:37.152Z,61.60
2022-08-07T06:41:13.055Z,61.20
2022-08-07T06:43:46.159Z,60.90
2022-08-07T06:46:14.511Z,60.60
2022-08-07T06:48:44.616Z,60.50
2022-08-07T06:51:31.131Z,60.40
2022-08-07T06:55:31.764Z,60.10
2022-08-07T06:56:54.393Z,59.90
2022-08-07T07:00:12.996Z,59.80
2022-08-07T07:02:48.856Z,59.70
2022-08-07T07:05:09.494Z,59.50
2022-08-07T07:08:00.149Z,59.30
2022-08-07T07:10:31.316Z,59.20
2022-08-07T07:13:11.076Z,58.90
2022-08-07T07:15:44.502Z,58.60
2022-08-07T07:18:48.778Z,58.40
2022-08-07T07:21:19.965Z,58.10
2022-08-07T07:24:09.519Z,58.00
2022-08-07T07:26:37.998Z,57.80
2022-08-07T07:29:38.954Z,58.10
2022-08-07T07:32:08.532Z,57.30
2022-08-07T07:34:39.661Z,57.20
2022-08-07T07:37:21.712Z,57.90
2022-08-07T07:39:59.931Z,57.10
2022-08-07T07:42:32.774Z,56.90
2022-08-07T07:45:05.635Z,57.30
2022-08-07T07:47:52.287Z,56.40
2022-08-07T07:50:34.443Z,56.30
2022-08-07T07:53:20.249Z,56.20
2022-08-07T07:55:57.667Z,56.00
2022-08-07T07:58:30.865Z,55.70
2022-08-07T08:02:01.737Z,55.60
2022-08-07T08:04:09.773Z,55.60
2022-08-07T08:06:50.598Z,55.40
2022-08-07T08:09:22.789Z,55.40
2022-08-07T08:12:02.401Z,55.20
2022-08-07T08:14:36.632Z,55.20
2022-08-07T08:17:55.934Z,55.00
2022-08-07T08:20:19.142Z,54.90
2022-08-07T08:23:14.386Z,54.90
2022-08-07T08:26:06.670Z,54.80
2022-08-07T08:28:39.242Z,54.70
2022-08-07T08:31:16.282Z,54.50
2022-08-07T08:33:55.699Z,54.40
2022-08-07T08:36:30.435Z,55.00
2022-08-07T08:39:02.190Z,54.30
2022-08-07T08:41:59.893Z,54.20
2022-08-07T08:45:20.730Z,54.00
2022-08-07T08:48:35.962Z,53.80
2022-08-07T08:51:49.566Z,53.60
2022-08-07T08:54:24.955Z,53.70
2022-08-07T08:56:54.649Z,53.60
2022-08-07T08:59:42.209Z,53.50
2022-08-07T09:03:08.328Z,53.40
2022-08-07T09:05:46.591Z,53.20
2022-08-07T09:08:31.126Z,53.00
2022-08-07T09:11:24.896Z,52.90
2022-08-07T09:14:13.144Z,52.70
2022-08-07T09:17:20.630Z,52.60
2022-08-07T09:20:30.720Z,52.40
2022-08-07T09:24:30.449Z,52.40
2022-08-07T09:26:20.829Z,52.40
2022-08-07T09:30:07.034Z,52.30
2022-08-07T09:31:55.118Z,52.10
2022-08-07T09:34:53.962Z,52.00
2022-08-07T09:37:47.758Z,51.90
2022-08-07T09:40:53.214Z,52.00
2022-08-07T09:44:03.105Z,52.10
2022-08-07T09:47:51.887Z,52.20
2022-08-07T09:50:18.429Z,52.00
2022-08-07T09:52:56.795Z,51.90
2022-08-07T09:56:04.703Z,52.00
2022-08-07T09:58:56.360Z,52.20
2022-08-07T10:01:51.575Z,52.20
2022-08-07T10:04:47.635Z,52.30
2022-08-07T10:07:52.797Z,52.30
2022-08-07T10:12:00.545Z,52.40
2022-08-07T10:14:01.226Z,52.30
2022-08-07T10:16:50.506Z,52.20
2022-08-07T10:19:38.858Z,52.20
2022-08-07T10:22:33.716Z,52.00
2022-08-07T10:25:03.459Z,52.10
2022-08-07T10:27:45.840Z,52.00
2022-08-07T10:30:18.636Z,51.80
2022-08-07T10:33:14.808Z,51.50
2022-08-07T10:36:10.999Z,51.30
2022-08-07T10:39:05.401Z,51.00
2022-08-07T10:41:46.605Z,50.90
2022-08-07T10:44:38.514Z,50.60
2022-08-07T10:47:52.869Z,50.40
2022-08-07T10:50:25.980Z,50.00
2022-08-07T10:53:22.743Z,50.00
2022-08-07T10:56:02.292Z,49.60
2022-08-07T10:58:59.861Z,49.50
2022-08-07T11:02:04.775Z,49.00
2022-08-07T11:04:45.597Z,48.90
2022-08-07T11:07:59.205Z,48.80
2022-08-07T11:10:39.943Z,48.40
2022-08-07T11:14:45.488Z,48.00
2022-08-07T11:16:36.157Z,48.00
2022-08-07T11:19:14.226Z,48.10
2022-08-07T11:22:03.465Z,47.70
2022-08-07T11:24:53.661Z,47.50
2022-08-07T11:27:33.538Z,47.20
2022-08-07T11:30:19.246Z,47.10
2022-08-07T11:33:02.617Z,46.80
2022-08-07T11:36:08.151Z,46.40
2022-08-07T11:38:53.627Z,45.70
2022-08-07T11:42:00.224Z,45.40
2022-08-07T11:44:33.345Z,45.20
2022-08-07T11:47:39.204Z,44.90
2022-08-07T11:50:58.396Z,44.80
2022-08-07T11:53:43.328Z,45.10
2022-08-07T11:56:53.221Z,44.20
2022-08-07T12:00:11.341Z,43.50
2022-08-07T12:02:37.680Z,42.80
2022-08-07T12:05:47.295Z,42.80
2022-08-07T12:08:26.025Z,42.30
2022-08-07T12:11:21.038Z,42.20
2022-08-07T12:14:05.437Z,41.80
2022-08-07T12:16:37.444Z,41.50
2022-08-07T12:19:35.550Z,41.30
2022-08-07T12:22:58.546Z,40.80
2022-08-07T12:26:03.467Z,40.90
2022-08-07T12:29:03.670Z,40.90
2022-08-07T12:32:13.173Z,40.70
2022-08-07T12:34:42.135Z,40.80
2022-08-07T12:37:23.347Z,40.80
2022-08-07T12:39:58.706Z,40.60
2022-08-07T12:42:28.450Z,40.40
2022-08-07T12:45:09.021Z,40.40
2022-08-07T12:47:44.019Z,40.50
2022-08-07T12:50:38.899Z,40.50
2022-08-07T12:53:27.534Z,40.30
2022-08-07T12:56:19.210Z,40.40
2022-08-07T12:58:57.345Z,40.30
2022-08-07T13:01:49.816Z,40.20
2022-08-07T13:04:34.497Z,40.10
2022-08-07T13:07:02.188Z,40.10
2022-08-07T13:10:29.104Z,40.10
2022-08-07T13:13:00.352Z,40.00
2022-08-07T13:15:37.722Z,40.30
2022-08-07T13:18:30.039Z,40.10
2022-08-07T13:21:12.675Z,40.20
2022-08-07T13:24:00.887Z,40.20
2022-08-07T13:26:53.927Z,40.30
2022-08-07T13:29:36.332Z,40.30
2022-08-07T13:32:32.234Z,40.40
2022-08-07T13:35:21.948Z,40.40
2022-08-07T13:38:24.541Z,40.40
2022-08-07T13:41:41.533Z,40.60
2022-08-07T13:44:10.304Z,40.80
2022-08-07T13:46:49.244Z,40.90
2022-08-07T13:50:34.307Z,40.90
2022-08-07T13:52:30.467Z,40.80
2022-08-07T13:54:59.589Z,40.80
2022-08-07T13:57:32.120Z,40.80
2022-08-07T14:00:08.493Z,41.00
2022-08-07T14:02:56.534Z,40.80
2022-08-07T14:05:24.902Z,40.60
2022-08-07T14:08:07.121Z,40.60
2022-08-07T14:10:42.460Z,40.60
2022-08-07T14:13:19.119Z,40.70
2022-08-07T14:15:57.003Z,40.70
2022-08-07T14:18:32.634Z,40.50
2022-08-07T14:21:21.119Z,40.50
2022-08-07T14:24:12.789Z,40.50
2022-08-07T14:26:50.712Z,40.40
2022-08-07T14:30:06.340Z,40.40
2022-08-07T14:32:12.411Z,40.40
2022-08-07T14:34:46.997Z,40.40
2022-08-07T14:37:18.390Z,40.20
2022-08-07T14:40:17.071Z,40.10
2022-08-07T14:43:55.809Z,40.20
2022-08-07T14:48:20.937Z,40.20
2022-08-07T14:50:53.780Z,40.20
2022-08-07T14:54:05.764Z,40.70
2022-08-07T14:56:13.061Z,40.00
2022-08-07T14:58:44.987Z,40.20
2022-08-07T15:01:21.951Z,40.10
2022-08-07T15:03:53.421Z,40.00
2022-08-07T15:06:25.550Z,39.70
2022-08-07T15:08:54.957Z,39.40
2022-08-07T15:11:50.857Z,39.50
2022-08-07T15:14:17.977Z,39.60
2022-08-07T15:16:55.251Z,39.70
2022-08-07T15:20:31.500Z,39.90
2022-08-07T15:25:17.001Z,40.00
2022-08-07T15:28:32.477Z,40.00
2022-08-07T15:31:04.992Z,39.90
2022-08-07T15:36:14.727Z,40.00
2022-08-07T15:39:12.394Z,40.00
2022-08-07T15:44:52.207Z,40.10
2022-08-07T15:48:00.978Z,40.20
2022-08-07T15:50:37.445Z,40.20
2022-08-07T15:53:51.730Z,40.20
2022-08-07T15:56:24.552Z,40.30
2022-08-07T15:58:55.065Z,40.30
2022-08-07T16:01:38.448Z,40.90
2022-08-07T16:04:14.501Z,40.30
2022-08-07T16:06:54.430Z,40.40
2022-08-07T16:09:42.329Z,40.70
2022-08-07T16:12:28.898Z,40.70
2022-08-07T16:15:55.556Z,40.70
2022-08-07T16:18:50.004Z,40.90
2022-08-07T16:22:03.301Z,40.70
2022-08-07T16:24:52.659Z,40.50
2022-08-07T16:27:19.698Z,40.50
2022-08-07T16:30:10.656Z,40.40
2022-08-07T16:32:54.928Z,40.40
2022-08-07T16:35:58.302Z,40.50
2022-08-07T16:39:00.842Z,40.50
2022-08-07T16:42:01.339Z,40.60
2022-08-07T16:45:19.455Z,40.60
2022-08-07T16:48:09.096Z,40.70
2022-08-07T16:51:07.413Z,40.90
2022-08-07T16:54:06.439Z,41.00
2022-08-07T16:56:53.606Z,41.10
2022-08-07T16:59:45.739Z,41.20
2022-08-07T17:02:28.362Z,41.30
2022-08-07T17:06:01.927Z,41.30
2022-08-07T17:08:09.147Z,41.40
2022-08-07T17:10:54.705Z,41.40
2022-08-07T17:13:24.902Z,41.50
2022-08-07T17:16:22.046Z,41.50
2022-08-07T17:18:51.891Z,41.60
2022-08-07T17:21:51.308Z,41.80
2022-08-07T17:24:40.688Z,42.00
2022-08-07T17:27:29.741Z,42.20
2022-08-07T17:30:15.475Z,42.20
2022-08-07T17:33:02.956Z,42.30
2022-08-07T17:35:54.954Z,42.40
2022-08-07T17:38:33.482Z,42.40
2022-08-07T17:42:02.041Z,42.50
2022-08-07T17:44:34.164Z,42.50
2022-08-07T17:47:42.098Z,42.50
2022-08-07T17:50:34.418Z,42.50
2022-08-07T17:53:59.457Z,42.70
2022-08-07T17:56:25.886Z,42.80
2022-08-07T17:58:56.855Z,42.80
2022-08-07T18:01:36.724Z,42.80
2022-08-07T18:04:31.246Z,42.80
2022-08-07T18:07:20.776Z,42.70
2022-08-07T18:10:06.175Z,42.80
2022-08-07T18:12:53.967Z,42.80
2022-08-07T18:15:33.099Z,42.80
2022-08-07T18:18:45.242Z,42.90
2022-08-07T18:21:42.238Z,42.80
2022-08-07T18:24:07.722Z,42.90
2022-08-07T18:26:42.749Z,43.10
2022-08-07T18:30:07.239Z,43.10
2022-08-07T18:33:10.606Z,43.10
2022-08-07T18:35:51.862Z,43.30
2022-08-07T18:38:57.381Z,43.50
2022-08-07T18:41:45.675Z,43.80
2022-08-07T18:44:45.952Z,43.80
2022-08-07T18:47:45.103Z,44.00
2022-08-07T18:50:43.971Z,44.10
2022-08-07T18:53:39.585Z,44.20
2022-08-07T18:56:31.826Z,44.30
2022-08-07T18:59:47.186Z,44.50
2022-08-07T19:02:39.571Z,44.50
2022-08-07T19:06:03.557Z,44.70
2022-08-07T19:08:27.414Z,44.90
2022-08-07T19:11:06.880Z,44.90
2022-08-07T19:14:19.895Z,45.00
2022-08-07T19:17:04.706Z,45.10
2022-08-07T19:20:06.463Z,45.20
2022-08-07T19:23:18.267Z,45.40
2022-08-07T19:26:25.216Z,45.40
2022-08-07T19:30:53.820Z,45.50
2022-08-07T19:31:59.722Z,45.60
2022-08-07T19:34:34.428Z,45.60
2022-08-07T19:37:10.259Z,45.70
2022-08-07T19:39:56.635Z,45.70
2022-08-07T19:42:26.882Z,45.80
2022-08-07T19:45:08.251Z,45.90
2022-08-07T19:47:41.827Z,45.90
2022-08-07T19:50:44.001Z,46.00
2022-08-07T19:52:59.274Z,46.00
2022-08-07T19:55:57.548Z,46.50
2022-08-07T19:58:18.407Z,46.30
2022-08-07T20:00:57.854Z,46.40
2022-08-07T20:03:33.492Z,46.40
2022-08-07T20:06:04.552Z,46.60
2022-08-07T20:08:35.172Z,46.70
2022-08-07T20:11:10.022Z,46.90
2022-08-07T20:13:53.795Z,47.00
2022-08-07T20:16:35.149Z,47.20
2022-08-07T20:19:06.097Z,47.90
2022-08-07T20:21:41.623Z,47.40
2022-08-07T20:24:36.471Z,47.50
2022-08-07T20:27:11.775Z,47.70
2022-08-07T20:29:58.134Z,47.80
2022-08-07T20:32:40.168Z,47.90
2022-08-07T20:35:26.231Z,48.00
2022-08-07T20:37:58.569Z,48.10
2022-08-07T20:40:34.502Z,48.10
2022-08-07T20:43:09.505Z,48.10
2022-08-07T20:46:26.044Z,48.20
2022-08-07T20:48:34.534Z,48.30
2022-08-07T20:51:04.893Z,48.40
2022-08-07T20:54:03.404Z,48.30
2022-08-07T20:56:28.772Z,48.40
2022-08-07T20:59:00.199Z,48.30
2022-08-07T21:01:45.984Z,48.40
2022-08-07T21:04:22.623Z,48.50
2022-08-07T21:06:55.200Z,48.40
2022-08-07T21:09:51.914Z,48.40
2022-08-07T21:12:29.355Z,48.40
2022-08-07T21:15:02.859Z,48.40
2022-08-07T21:18:03.444Z,48.40
2022-08-07T21:20:29.763Z,48.40
2022-08-07T21:23:08.475Z,48.40
2022-08-07T21:25:45.236Z,48.50
2022-08-07T21:28:48.743Z,48.50
2022-08-07T21:32:42.271Z,48.50
2022-08-07T21:34:52.145Z,48.60
2022-08-07T21:37:25.784Z,48.70
2022-08-07T21:40:01.952Z,48.60
2022-08-07T21:42:42.605Z,48.70
2022-08-07T21:46:03.504Z,48.90
2022-08-07T21:48:33.624Z,49.00
2022-08-07T21:51:32.963Z,49.00
2022-08-07T21:54:45.905Z,49.10
2022-08-07T21:57:52.061Z,49.20
2022-08-07T22:00:25.093Z,49.30
2022-08-07T22:03:03.611Z,49.30
2022-08-07T22:05:45.572Z,49.30
2022-08-07T22:08:19.844Z,49.50
2022-08-07T22:10:54.924Z,49.50
2022-08-07T22:13:50.345Z,49.60
2022-08-07T22:16:40.195Z,49.70
2022-08-07T22:19:18.149Z,49.70
2022-08-07T22:22:18.213Z,49.80
2022-08-07T22:25:07.535Z,50.00
2022-08-07T22:28:03.031Z,50.10
2022-08-07T22:30:36.079Z,50.20
2022-08-07T22:33:09.618Z,50.50
2022-08-07T22:36:04.484Z,50.80
2022-08-07T22:38:38.103Z,51.10
2022-08-07T22:41:20.842Z,51.10
2022-08-07T22:44:01.520Z,51.40
2022-08-07T22:47:03.603Z,51.50
2022-08-07T22:49:42.831Z,51.70
2022-08-07T22:52:39.973Z,52.00
2022-08-07T22:55:51.527Z,52.00
2022-08-07T22:58:49.577Z,52.20
2022-08-07T23:01:50.878Z,52.30
2022-08-07T23:04:57.662Z,52.50
2022-08-07T23:07:56.763Z,52.50
2022-08-07T23:10:37.601Z,52.50
2022-08-07T23:13:29.334Z,52.50
2022-08-07T23:16:55.438Z,52.60
2022-08-07T23:20:12.143Z,52.60
2022-08-07T23:23:05.088Z,52.60
2022-08-07T23:26:01.149Z,52.50
2022-08-07T23:28:54.605Z,52.50
2022-08-07T23:34:20.231Z,52.60
2022-08-07T23:35:16.697Z,52.60
2022-08-07T23:38:36.700Z,52.70
2022-08-07T23:41:47.526Z,52.70
2022-08-07T23:45:06.171Z,52.80
2022-08-07T23:47:48.088Z,52.80
2022-08-07T23:50:40.895Z,52.90
2022-08-07T23:53:51.421Z,53.00
2022-08-07T23:56:50.352Z,53.10
